Startpagina
METAR-TAF:

METAR-TAF

Vliegvelden :

Portage Glacier, Alaska, Verenigde Staten

breedte: 60-47N, lengte: 148-50W, hoogte: 29 m

Actueel weer

Dit bericht is 57 minuten geleden gemaakt, om 22:53 UTC
Wind 13 kt uit het oostzuidoosten met uitschieters tot 34 kt, variërend tussen het oostnoordoosten en het zuidzuidoosten
Temperatuur 6°C
Vochtigheid 75%
Druk 1004 hPa
Zicht: 16.1 km
Weinig wolken op 2000 ft
Gebroken wolken op 2700 ft
Geheel bewolkt op 3400 ft

METAR: PATO 212253Z AUTO 11013G34KT 070V150 10SM FEW020 BKN027 OVC034 06/02 A2964 RMK AO2 PK WND 13039/2214 RAB2155E46 SLP037 P0003 T00560022 TSNO

Tijdstip: 15:50 (23:50 UTC)


TAF: ontbreekt

Waarnemingen en weersverwachtingen van meer dan 4000 vliegvelden (METAR en TAF).

De beschikbare stations zijn de gele en rode punten op de kaart.

Ga met uw muis naar het station om de naam te zien.

Klik dan om waarnemingen en weersverwachtingen te zien.

kaart wijzigen: klik op de groene knoppen met een zwart kruis om in te zoomen, op de groene knop met een streepje om uit te zoomen of op de groene pijlen voor aangrenzende kaarten.


METAR-TAF: